Boston, Massachusetts
Traffic Map
Current Weather Conditions
Boston, Massachusetts
Overcast Light Rain
Overcast
23°
Feels Like: 23°
Wind Chill: 23° Ceiling: 12000
Heat Index: 23° Visibility: 7mi
Dew Point: 21° Wind: 8mph
Humidity: 90% Direction: 360° (N)
Pressure: 29.87in Gusts: 0mph
Raw Report DataKBOS 291354Z 36007KT 7SM -RA FEW015 SCT070 OVC120 23/21 A2987 RMK AO2 SLP116 P0002 T02280211 $
Traffic Incident Summary
Active as of:
Severity:
Category:
InformationThere was an issue retrieving the traffic information for this location. Please try a different location or try again shortly.
Advertisements
Track Severe Weather on mobile